Time;durP1;ratioP1;P1;durP2;ratioP2;P2;SDS_P1;SDS_P2;PMS_P1;PMS_P2;Temp;Humidity;BMP_temperature;BMP_pressure;BME280_temperature;BME280_humidity;BME280_pressure;Samples;Min_cycle;Max_cycle;Signal;HPM_P1;HPM_P2
2023/03/18 00:01:53;;;;;;;1999.90;999.90;;;12.20;99.90;;;;;;5074948;28;20203;-66
2023/03/18 00:04:20;;;;;;;1999.90;999.90;;;12.20;99.90;;;;;;5074571;28;20538;-67
2023/03/18 00:06:45;;;;;;;1999.90;999.90;;;12.10;99.90;;;;;;5074425;28;20280;-68
2023/03/18 00:09:12;;;;;;;1999.90;999.90;;;12.10;99.90;;;;;;5074683;28;20873;-68
2023/03/18 00:11:39;;;;;;;1999.90;999.90;;;12.00;99.90;;;;;;5074599;28;20184;-69
2023/03/18 00:14:07;;;;;;;1999.90;999.90;;;12.10;99.90;;;;;;5073683;28;20411;-68
2023/03/18 00:16:34;;;;;;;1999.90;999.90;;;12.10;99.90;;;;;;5074313;28;20865;-68
2023/03/18 00:19:01;;;;;;;1999.90;999.90;;;12.10;99.90;;;;;;5074249;28;20416;-68
2023/03/18 00:21:28;;;;;;;1999.90;999.90;;;12.20;99.90;;;;;;5074405;28;20459;-67
2023/03/18 00:23:55;;;;;;;1999.90;999.90;;;12.20;99.90;;;;;;5074298;28;20429;-67
2023/03/18 00:26:22;;;;;;;1999.90;999.90;;;12.30;99.90;;;;;;5074172;28;20794;-67
2023/03/18 00:28:48;;;;;;;1999.90;999.90;;;12.30;99.90;;;;;;5074151;28;20403;-67
2023/03/18 00:31:14;;;;;;;1999.90;999.90;;;12.30;99.90;;;;;;5074077;28;20508;-67
2023/03/18 00:33:44;;;;;;;1999.90;999.90;;;12.30;99.90;;;;;;5073786;28;20498;-67
2023/03/18 00:36:15;;;;;;;1999.90;999.90;;;12.30;99.90;;;;;;5073808;28;20200;-67
2023/03/18 00:38:42;;;;;;;1999.90;999.90;;;12.40;99.90;;;;;;5074260;28;20838;-67
2023/03/18 00:41:14;;;;;;;1999.90;999.90;;;12.30;99.90;;;;;;5073669;28;20457;-68
2023/03/18 00:43:48;;;;;;;1999.90;999.90;;;12.40;99.90;;;;;;5073792;28;20402;-67
2023/03/18 00:46:18;;;;;;;1999.90;999.90;;;12.30;99.90;;;;;;5073613;28;20438;-66
2023/03/18 00:48:45;;;;;;;1999.90;999.90;;;12.20;99.90;;;;;;5073838;28;20900;-68
2023/03/18 00:51:13;;;;;;;1999.90;999.90;;;12.20;99.90;;;;;;5073560;28;20414;-67
2023/03/18 00:53:45;;;;;;;1999.90;999.90;;;12.20;99.90;;;;;;5073687;28;20898;-68
2023/03/18 00:56:12;;;;;;;1999.90;999.90;;;12.10;99.90;;;;;;5073399;28;20491;-68
2023/03/18 00:58:39;;;;;;;1999.90;999.90;;;12.30;99.90;;;;;;5073476;28;20423;-67
2023/03/18 01:01:06;;;;;;;1999.90;999.90;;;12.40;99.90;;;;;;5073701;28;20825;-68
2023/03/18 01:03:33;;;;;;;1999.90;999.90;;;12.50;99.90;;;;;;5073274;28;20403;-67
2023/03/18 01:06:03;;;;;;;1999.90;999.90;;;12.50;99.90;;;;;;5073313;28;20464;-68
2023/03/18 01:08:29;;;;;;;1999.90;999.90;;;12.40;99.90;;;;;;5073466;28;20945;-67
2023/03/18 01:10:55;;;;;;;1999.90;999.90;;;12.40;99.90;;;;;;5073344;28;20413;-68
2023/03/18 01:13:22;;;;;;;1999.90;999.90;;;12.30;99.90;;;;;;5073066;28;20442;-67
2023/03/18 01:15:49;;;;;;;1999.90;999.90;;;12.30;99.90;;;;;;5073343;28;20427;-67
2023/03/18 01:18:15;;;;;;;1999.90;999.90;;;12.30;99.90;;;;;;5073171;28;20399;-66
2023/03/18 01:20:41;;;;;;;1999.90;999.90;;;12.20;99.90;;;;;;5073199;28;20994;-68
2023/03/18 01:23:07;;;;;;;1999.90;999.90;;;12.20;99.90;;;;;;5073012;28;20410;-67
2023/03/18 01:25:33;;;;;;;1999.90;999.90;;;12.20;99.90;;;;;;5072096;28;20426;-68
2023/03/18 01:27:59;;;;;;;1999.90;999.90;;;12.30;99.90;;;;;;5072900;28;20481;-68
2023/03/18 01:30:27;;;;;;;1999.90;999.90;;;12.30;99.90;;;;;;5073208;28;20496;-67
2023/03/18 01:32:53;;;;;;;1999.90;999.90;;;12.40;99.90;;;;;;5072797;28;20218;-66
2023/03/18 01:35:20;;;;;;;1999.90;999.90;;;12.50;99.90;;;;;;5072871;28;20426;-67
2023/03/18 01:37:46;;;;;;;1999.90;999.90;;;12.50;99.90;;;;;;5072829;28;20410;-66
2023/03/18 01:40:14;;;;;;;1999.90;999.90;;;12.60;99.90;;;;;;5072561;28;20923;-67
2023/03/18 01:42:41;;;;;;;1999.90;999.90;;;12.60;99.90;;;;;;5072492;28;20208;-67
2023/03/18 01:45:09;;;;;;;1999.90;999.90;;;12.50;99.90;;;;;;5072665;28;20430;-67
2023/03/18 01:47:34;;;;;;;1999.90;999.90;;;12.50;99.90;;;;;;5072532;28;20913;-67
2023/03/18 01:50:00;;;;;;;1999.90;999.90;;;12.50;99.90;;;;;;5072551;28;20395;-67
2023/03/18 01:52:30;;;;;;;1999.90;999.90;;;12.40;99.90;;;;;;5072356;28;20260;-67
2023/03/18 01:55:07;;;;;;;1999.90;999.90;;;12.40;99.90;;;;;;5072376;28;20285;-68
2023/03/18 01:57:34;;;;;;;1999.90;999.90;;;12.30;99.90;;;;;;5072369;28;20413;-68
2023/03/18 02:00:01;;;;;;;1999.90;999.90;;;12.30;99.90;;;;;;5072382;28;20413;-68
2023/03/18 02:02:28;;;;;;;1999.90;999.90;;;12.30;99.90;;;;;;5072208;28;20468;-69
2023/03/18 02:04:58;;;;;;;1999.90;999.90;;;12.30;99.90;;;;;;5072316;28;20431;-69
2023/03/18 02:07:33;;;;;;;1999.90;999.90;;;12.30;99.90;;;;;;5072161;28;20486;-68
2023/03/18 02:10:03;;;;;;;1999.90;999.90;;;12.20;99.90;;;;;;5072430;28;20497;-68
2023/03/18 02:12:32;;;;;;;1999.90;999.90;;;12.10;99.90;;;;;;5072007;28;20415;-68
2023/03/18 02:15:04;;;;;;;1999.90;999.90;;;12.10;99.90;;;;;;5072271;28;20433;-69
2023/03/18 02:17:34;;;;;;;1999.90;999.90;;;12.10;99.90;;;;;;5072100;28;20793;-67
2023/03/18 02:20:33;;;;;;;1999.90;999.90;;;12.00;99.90;;;;;;5071450;28;20399;-69
2023/03/18 02:23:24;;;;;;;1999.90;999.90;;;11.90;99.90;;;;;;5072107;28;20401;-69
2023/03/18 02:26:08;;;;;;;1999.90;999.90;;;11.90;99.90;;;;;;5071982;28;20438;-69
2023/03/18 02:28:36;;;;;;;1999.90;999.90;;;11.80;99.90;;;;;;5072012;28;20911;-69
2023/03/18 02:31:08;;;;;;;1999.90;999.90;;;11.80;99.90;;;;;;5072277;28;20975;-68
2023/03/18 02:33:37;;;;;;;1999.90;999.90;;;11.70;99.90;;;;;;5071820;28;20801;-69
2023/03/18 02:36:08;;;;;;;1999.90;999.90;;;11.70;99.90;;;;;;5071705;28;20839;-68
2023/03/18 02:38:34;;;;;;;1999.90;999.90;;;11.60;99.90;;;;;;5071954;28;20425;-68
2023/03/18 02:41:00;;;;;;;1999.90;999.90;;;11.60;99.90;;;;;;5071726;28;20492;-68
2023/03/18 02:43:29;;;;;;;1999.90;999.90;;;11.50;99.90;;;;;;5071559;28;20403;-68
2023/03/18 02:46:31;;;;;;;1999.90;999.90;;;11.50;99.90;;;;;;5071890;28;20442;-69
2023/03/18 02:48:59;;;;;;;1999.90;999.90;;;11.50;99.90;;;;;;5071907;28;20471;-68
2023/03/18 02:51:26;;;;;;;1999.90;999.90;;;11.40;99.90;;;;;;5071788;28;20485;-68
2023/03/18 02:53:55;;;;;;;1999.90;999.90;;;11.40;99.90;;;;;;5071567;28;20397;-68
2023/03/18 02:56:22;;;;;;;1999.90;999.90;;;11.30;99.90;;;;;;5071606;28;20941;-68
2023/03/18 02:58:48;;;;;;;1999.90;999.90;;;11.20;99.90;;;;;;5071903;28;20505;-68
2023/03/18 03:01:14;;;;;;;1999.90;999.90;;;11.30;99.90;;;;;;5071704;28;20563;-68
2023/03/18 03:03:40;;;;;;;1999.90;999.90;;;11.30;99.90;;;;;;5071496;28;20164;-67
2023/03/18 03:06:06;;;;;;;1999.90;999.90;;;11.30;99.90;;;;;;5071474;28;20433;-67
2023/03/18 03:08:32;;;;;;;1999.90;999.90;;;11.40;99.90;;;;;;5071825;28;20827;-67
2023/03/18 03:10:58;;;;;;;1999.90;999.90;;;11.40;99.90;;;;;;5071838;28;20490;-68
2023/03/18 03:13:23;;;;;;;1999.90;999.90;;;11.50;99.90;;;;;;5071524;28;20581;-68
2023/03/18 03:15:49;;;;;;;1999.90;999.90;;;11.50;99.90;;;;;;5071582;28;20898;-68
2023/03/18 03:18:15;;;;;;;1999.90;999.90;;;11.50;99.90;;;;;;5071587;28;20401;-69
2023/03/18 03:20:42;;;;;;;1999.90;999.90;;;11.40;99.90;;;;;;5071334;28;20171;-68
2023/03/18 03:23:12;;;;;;;1999.90;999.90;;;11.40;99.90;;;;;;5071265;28;20409;-68
2023/03/18 03:25:38;;;;;;;1999.90;999.90;;;11.40;99.90;;;;;;5071391;28;20417;-68
2023/03/18 03:28:06;;;;;;;1999.90;999.90;;;11.40;99.90;;;;;;5071490;28;20455;-68
2023/03/18 03:30:32;;;;;;;1999.90;999.90;;;11.30;99.90;;;;;;5071467;28;20970;-68
2023/03/18 03:32:59;;;;;;;1999.90;999.90;;;11.40;99.90;;;;;;5071284;28;20409;-69
2023/03/18 03:35:25;;;;;;;1999.90;999.90;;;11.30;99.90;;;;;;5071278;28;20960;-68
2023/03/18 03:37:50;;;;;;;1999.90;999.90;;;11.30;99.90;;;;;;5071212;28;20447;-68
2023/03/18 03:40:19;;;;;;;1999.90;999.90;;;11.40;99.90;;;;;;5071411;28;20429;-67
2023/03/18 03:42:45;;;;;;;1999.90;999.90;;;11.40;99.90;;;;;;5071079;28;20324;-68
2023/03/18 03:45:14;;;;;;;1999.90;999.90;;;11.30;99.90;;;;;;5071304;28;20413;-68
2023/03/18 03:47:40;;;;;;;1999.90;999.90;;;11.30;99.90;;;;;;5071120;28;20493;-67
2023/03/18 03:50:06;;;;;;;1999.90;999.90;;;11.30;99.90;;;;;;5074644;28;20405;-68
2023/03/18 03:52:32;;;;;;;1999.90;999.90;;;11.30;99.90;;;;;;5074634;28;20406;-67
2023/03/18 03:54:59;;;;;;;1999.90;999.90;;;11.30;99.90;;;;;;5074883;28;20432;-67
2023/03/18 03:57:26;;;;;;;1999.90;999.90;;;11.30;99.90;;;;;;5074734;28;20406;-68
2023/03/18 03:59:52;;;;;;;1999.90;999.90;;;11.10;99.90;;;;;;5074737;28;20940;-68
2023/03/18 04:02:19;;;;;;;1999.90;999.90;;;11.10;99.90;;;;;;5074412;28;20452;-67
2023/03/18 04:04:45;;;;;;;1999.90;999.90;;;10.90;99.90;;;;;;5074791;28;20397;-67
2023/03/18 04:07:11;;;;;;;1999.90;999.90;;;10.90;99.90;;;;;;5074664;28;20443;-68
2023/03/18 04:09:37;;;;;;;1999.90;999.90;;;10.80;99.90;;;;;;5074518;28;20436;-68
2023/03/18 04:12:04;;;;;;;1999.90;999.90;;;10.80;99.90;;;;;;5074416;28;20413;-68
2023/03/18 04:14:30;;;;;;;1999.90;999.90;;;10.90;99.90;;;;;;5074475;28;20207;-68
2023/03/18 04:16:57;;;;;;;1999.90;999.90;;;10.90;99.90;;;;;;5074136;28;20487;-68
2023/03/18 04:19:24;;;;;;;1999.90;999.90;;;10.80;99.90;;;;;;5074395;28;20761;-68
2023/03/18 04:21:50;;;;;;;1999.90;999.90;;;10.80;99.90;;;;;;5074154;28;20460;-68
2023/03/18 04:24:16;;;;;;;1999.90;999.90;;;10.80;99.90;;;;;;5074147;28;20402;-68
2023/03/18 04:26:42;;;;;;;1999.90;999.90;;;10.70;99.90;;;;;;5074466;28;20432;-68
2023/03/18 04:29:07;;;;;;;1999.90;999.90;;;10.80;99.90;;;;;;5074250;28;20393;-68
2023/03/18 04:31:33;;;;;;;1999.90;999.90;;;10.60;99.90;;;;;;5074125;28;20174;-68
2023/03/18 04:33:59;;;;;;;1999.90;999.90;;;10.70;99.90;;;;;;5074101;28;20197;-68
2023/03/18 04:36:25;;;;;;;1999.90;999.90;;;10.70;99.90;;;;;;5074016;28;20201;-68
2023/03/18 04:38:50;;;;;;;1999.90;999.90;;;10.70;99.90;;;;;;5074129;28;20182;-68
2023/03/18 04:41:16;;;;;;;1999.90;999.90;;;10.60;99.90;;;;;;5073860;28;20464;-68
2023/03/18 04:43:43;;;;;;;1999.90;999.90;;;10.70;99.90;;;;;;5073763;28;20171;-68
2023/03/18 04:46:10;;;;;;;1999.90;999.90;;;10.50;99.90;;;;;;5073678;28;20507;-68
2023/03/18 04:48:40;;;;;;;1999.90;999.90;;;10.60;99.90;;;;;;5073987;28;20813;-68
2023/03/18 04:51:08;;;;;;;1999.90;999.90;;;10.70;99.90;;;;;;5074063;28;20409;-67
2023/03/18 04:53:34;;;;;;;1999.90;999.90;;;10.70;99.90;;;;;;5073637;28;20405;-67
2023/03/18 04:56:00;;;;;;;1999.90;999.90;;;10.80;99.90;;;;;;5073467;28;20461;-69
2023/03/18 04:58:26;;;;;;;1999.90;999.90;;;10.80;99.90;;;;;;5073644;28;20409;-67
2023/03/18 05:00:52;;;;;;;1999.90;999.90;;;10.70;99.90;;;;;;5073477;28;20508;-67
2023/03/18 05:03:18;;;;;;;1999.90;999.90;;;10.80;99.90;;;;;;5073356;28;20814;-67
2023/03/18 05:05:44;;;;;;;1999.90;999.90;;;10.80;99.90;;;;;;5073469;28;20192;-67
2023/03/18 05:08:09;;;;;;;1999.90;999.90;;;10.90;99.90;;;;;;5073397;28;20840;-68
2023/03/18 05:10:35;;;;;;;1999.90;999.90;;;10.90;99.90;;;;;;5073377;28;20425;-68
2023/03/18 05:13:02;;;;;;;1999.90;999.90;;;10.90;99.90;;;;;;5073146;28;20192;-69
2023/03/18 05:15:28;;;;;;;1999.90;999.90;;;10.80;99.90;;;;;;5073525;28;20851;-69
2023/03/18 05:17:53;;;;;;;1999.90;999.90;;;10.80;99.90;;;;;;5073128;28;20488;-68
2023/03/18 05:20:19;;;;;;;1999.90;999.90;;;10.70;99.90;;;;;;5073194;28;20584;-68
2023/03/18 05:22:44;;;;;;;1999.90;999.90;;;10.70;99.90;;;;;;5072881;28;20566;-67
2023/03/18 05:25:11;;;;;;;1999.90;999.90;;;10.60;99.90;;;;;;5073048;28;20187;-68
2023/03/18 05:27:37;;;;;;;1999.90;999.90;;;10.50;99.90;;;;;;5072878;28;20205;-67
2023/03/18 05:30:04;;;;;;;1999.90;999.90;;;10.60;99.90;;;;;;5072986;28;20436;-68
2023/03/18 05:32:31;;;;;;;1999.90;999.90;;;10.50;99.90;;;;;;5072745;28;20397;-68
2023/03/18 05:34:56;;;;;;;1999.90;999.90;;;10.40;99.90;;;;;;5072965;28;20425;-68
2023/03/18 05:37:23;;;;;;;1999.90;999.90;;;10.30;99.90;;;;;;5072813;28;20408;-67
2023/03/18 05:39:49;;;;;;;1999.90;999.90;;;10.30;99.90;;;;;;5072807;28;20924;-67
2023/03/18 05:42:15;;;;;;;1999.90;999.90;;;10.20;99.90;;;;;;5072367;28;20457;-68
2023/03/18 05:44:41;;;;;;;1999.90;999.90;;;9.90;99.90;;;;;;5072609;28;20397;-67
2023/03/18 05:47:08;;;;;;;1999.90;999.90;;;10.00;99.90;;;;;;5072573;28;20483;-67
2023/03/18 05:49:35;;;;;;;1999.90;999.90;;;9.90;99.90;;;;;;5072659;28;20656;-68
2023/03/18 05:52:01;;;;;;;1999.90;999.90;;;9.90;99.90;;;;;;5072457;28;20433;-68
2023/03/18 05:54:27;;;;;;;1999.90;999.90;;;9.90;99.90;;;;;;5072584;28;20408;-67
2023/03/18 05:56:53;;;;;;;1999.90;999.90;;;9.80;99.90;;;;;;5072219;28;20521;-68
2023/03/18 05:59:20;;;;;;;1999.90;999.90;;;9.80;99.90;;;;;;5072679;28;20412;-68
2023/03/18 06:01:47;;;;;;;1999.90;999.90;;;9.70;99.90;;;;;;5072458;28;20492;-68
2023/03/18 06:04:14;;;;;;;1999.90;999.90;;;9.60;99.90;;;;;;5072315;28;20546;-67
2023/03/18 06:06:39;;;;;;;1999.90;999.90;;;9.60;99.90;;;;;;5072280;28;20511;-67
2023/03/18 06:09:10;;;;;;;1999.90;999.90;;;9.70;99.90;;;;;;5072337;28;21010;-67
2023/03/18 06:11:36;;;;;;;1999.90;999.90;;;9.60;99.90;;;;;;5071865;28;20666;-68
2023/03/18 06:14:03;;;;;;;1999.90;999.90;;;9.70;99.90;;;;;;5072085;28;20898;-67
2023/03/18 06:16:29;;;;;;;1999.90;999.90;;;9.70;99.90;;;;;;5072179;28;20429;-68
2023/03/18 06:18:56;;;;;;;1999.90;999.90;;;9.80;99.90;;;;;;5072093;28;20409;-67
2023/03/18 06:21:22;;;;;;;1999.90;999.90;;;9.80;99.90;;;;;;5072181;28;20448;-67
2023/03/18 06:23:48;;;;;;;1999.90;999.90;;;9.80;99.90;;;;;;5071883;28;20547;-67
2023/03/18 06:26:14;;;;;;;1999.90;999.90;;;9.90;99.90;;;;;;5071901;28;20194;-68
2023/03/18 06:28:39;;;;;;;1999.90;999.90;;;9.80;99.90;;;;;;5072283;28;20439;-67
2023/03/18 06:31:05;;;;;;;1999.90;999.90;;;9.80;99.90;;;;;;5072120;28;20174;-67
2023/03/18 06:33:31;;;;;;;1999.90;999.90;;;9.80;99.90;;;;;;5071777;28;20412;-67
2023/03/18 06:35:59;;;;;;;1999.90;999.90;;;9.80;99.90;;;;;;5071917;28;20686;-67
2023/03/18 06:38:24;;;;;;;1999.90;999.90;;;10.00;99.90;;;;;;5071981;28;20439;-68
2023/03/18 06:40:50;;;;;;;1999.90;999.90;;;10.10;99.90;;;;;;5071687;28;21186;-69
2023/03/18 06:43:16;;;;;;;1999.90;999.90;;;10.30;99.90;;;;;;5071733;28;20446;-68
2023/03/18 06:45:41;;;;;;;1999.90;999.90;;;10.30;99.90;;;;;;5071832;28;20186;-68
2023/03/18 06:48:09;;;;;;;1999.90;999.90;;;10.40;99.90;;;;;;5071740;28;20168;-68
2023/03/18 06:50:35;;;;;;;1999.90;999.90;;;10.60;99.90;;;;;;5071980;28;20174;-69
2023/03/18 06:53:01;;;;;;;1999.90;999.90;;;10.70;99.90;;;;;;5071623;28;20907;-68
2023/03/18 06:55:27;;;;;;;1999.90;999.90;;;10.80;99.90;;;;;;5071615;28;20421;-67
2023/03/18 06:57:53;;;;;;;1999.90;999.90;;;10.90;99.90;;;;;;5071755;28;20280;-68
2023/03/18 07:00:20;;;;;;;1999.90;999.90;;;11.10;99.90;;;;;;5071826;28;20225;-67
2023/03/18 07:02:46;;;;;;;1999.90;999.90;;;11.20;99.90;;;;;;5071404;28;20476;-68
2023/03/18 07:05:12;;;;;;;1999.90;999.90;;;11.40;99.90;;;;;;5071618;28;20422;-68
2023/03/18 07:07:38;;;;;;;1999.90;999.90;;;11.50;99.90;;;;;;5071573;28;20191;-68
2023/03/18 07:10:06;;;;;;;1999.90;999.90;;;11.60;99.90;;;;;;5071583;28;20402;-67
2023/03/18 07:12:32;;;;;;;1999.90;999.90;;;11.60;99.90;;;;;;5071411;28;20403;-67
2023/03/18 07:14:58;;;;;;;1999.90;999.90;;;11.60;99.90;;;;;;5071552;28;20917;-67
2023/03/18 07:17:23;;;;;;;1999.90;999.90;;;11.70;99.90;;;;;;5071481;28;20195;-67
2023/03/18 07:19:49;;;;;;;1999.90;999.90;;;11.70;99.90;;;;;;5071670;28;20199;-67
2023/03/18 07:22:16;;;;;;;1999.90;999.90;;;11.80;99.90;;;;;;5071338;28;20203;-67
2023/03/18 07:24:45;;;;;;;1999.90;999.90;;;11.90;99.90;;;;;;5074628;28;20563;-68
2023/03/18 07:27:15;;;;;;;1999.90;999.90;;;12.00;99.90;;;;;;5075361;28;20769;-67
2023/03/18 07:29:41;;;;;;;1999.90;999.90;;;12.10;99.90;;;;;;5075332;28;20404;-67
2023/03/18 07:32:07;;;;;;;1999.90;999.90;;;12.20;99.90;;;;;;5074959;28;20406;-66
2023/03/18 07:34:32;;;;;;;1999.90;999.90;;;12.20;99.90;;;;;;5075305;28;20267;-67
2023/03/18 07:36:58;;;;;;;1999.90;999.90;;;12.30;99.90;;;;;;5075054;28;20423;-67
2023/03/18 07:39:24;;;;;;;1999.90;999.90;;;12.40;99.90;;;;;;5075241;28;20661;-66
2023/03/18 07:41:50;;;;;;;1999.90;999.90;;;12.50;99.90;;;;;;5074956;28;20204;-66
2023/03/18 07:44:16;;;;;;;1999.90;999.90;;;12.60;99.90;;;;;;5074863;28;20463;-67
2023/03/18 07:46:41;;;;;;;1999.90;999.90;;;12.60;99.90;;;;;;5074845;28;20432;-67
2023/03/18 07:49:07;;;;;;;1999.90;999.90;;;12.80;99.90;;;;;;5074976;28;20246;-67
2023/03/18 07:51:32;;;;;;;1999.90;999.90;;;12.80;99.90;;;;;;5074937;28;20174;-67
2023/03/18 07:53:58;;;;;;;1999.90;999.90;;;12.90;99.90;;;;;;5074942;28;20168;-67
2023/03/18 07:56:26;;;;;;;1999.90;999.90;;;13.00;99.90;;;;;;5074738;28;20326;-66
2023/03/18 07:58:51;;;;;;;1999.90;999.90;;;13.10;99.90;;;;;;5075064;28;20172;-67
2023/03/18 08:01:18;;;;;;;1999.90;999.90;;;13.10;99.90;;;;;;5074475;28;20469;-67
2023/03/18 08:03:45;;;;;;;1999.90;999.90;;;13.10;99.90;;;;;;5074562;28;20754;-67
2023/03/18 08:06:12;;;;;;;1999.90;999.90;;;13.30;99.90;;;;;;5074399;28;20425;-67
2023/03/18 08:08:39;;;;;;;1999.90;999.90;;;13.30;99.90;;;;;;5074625;28;20510;-67
2023/03/18 08:11:07;;;;;;;1999.90;999.90;;;13.40;99.90;;;;;;5074505;28;20478;-68
2023/03/18 08:13:32;;;;;;;1999.90;999.90;;;13.50;99.90;;;;;;5074288;28;20498;-67
2023/03/18 08:15:58;;;;;;;1999.90;999.90;;;13.60;99.90;;;;;;5074326;28;20509;-67
2023/03/18 08:18:24;;;;;;;1999.90;999.90;;;13.70;99.90;;;;;;5074427;28;20170;-67
2023/03/18 08:20:49;;;;;;;1999.90;999.90;;;13.80;99.90;;;;;;5074237;28;20181;-67
2023/03/18 08:23:15;;;;;;;1999.90;999.90;;;14.00;99.90;;;;;;5074246;28;20412;-67
2023/03/18 08:25:41;;;;;;;1999.90;999.90;;;14.10;99.90;;;;;;5074198;28;20199;-67
2023/03/18 08:28:07;;;;;;;1999.90;999.90;;;14.20;99.90;;;;;;5074164;28;20213;-67
2023/03/18 08:30:33;;;;;;;1999.90;999.90;;;14.40;99.90;;;;;;5074156;28;20429;-68
2023/03/18 08:33:00;;;;;;;1999.90;999.90;;;14.30;99.90;;;;;;5073893;28;20170;-67
2023/03/18 08:35:25;;;;;;;1999.90;999.90;;;14.20;99.90;;;;;;5073716;28;20523;-67
2023/03/18 08:37:52;;;;;;;1999.90;999.90;;;14.20;99.90;;;;;;5073973;28;20440;-68
2023/03/18 08:40:19;;;;;;;1999.90;999.90;;;14.20;99.90;;;;;;5074027;28;20181;-67
2023/03/18 08:42:45;;;;;;;1999.90;999.90;;;14.30;99.90;;;;;;5073693;28;20984;-67
2023/03/18 08:45:12;;;;;;;1999.90;999.90;;;14.30;99.90;;;;;;5073673;28;20432;-68
2023/03/18 08:47:38;;;;;;;1999.90;999.90;;;14.30;99.90;;;;;;5073760;28;20401;-69
2023/03/18 08:50:04;;;;;;;1999.90;999.90;;;14.40;99.90;;;;;;5073841;28;21124;-68
2023/03/18 08:52:31;;;;;;;1999.90;999.90;;;14.50;99.90;;;;;;5073571;28;20416;-68
2023/03/18 08:54:57;;;;;;;1999.90;999.90;;;14.40;99.90;;;;;;5073798;28;20503;-68
2023/03/18 08:57:22;;;;;;;1999.90;999.90;;;14.30;99.90;;;;;;5073655;28;20926;-68
2023/03/18 08:59:48;;;;;;;1999.90;999.90;;;14.30;99.90;;;;;;5073589;28;20177;-67
2023/03/18 09:02:18;;;;;;;1999.90;999.90;;;14.40;99.90;;;;;;5073247;28;20215;-66
2023/03/18 09:04:44;;;;;;;1999.90;999.90;;;14.50;99.90;;;;;;5073455;28;20402;-68
2023/03/18 09:07:11;;;;;;;1999.90;999.90;;;14.50;99.90;;;;;;5073365;28;20404;-68
2023/03/18 09:09:37;;;;;;;1999.90;999.90;;;14.60;99.90;;;;;;5073528;28;20404;-69
2023/03/18 09:12:04;;;;;;;1999.90;999.90;;;14.70;99.90;;;;;;5073334;28;20485;-69
2023/03/18 09:14:31;;;;;;;1999.90;999.90;;;14.70;99.90;;;;;;5073341;28;20492;-68
2023/03/18 09:16:58;;;;;;;1999.90;999.90;;;14.90;99.90;;;;;;5073028;28;20510;-68
2023/03/18 09:19:24;;;;;;;1999.90;999.90;;;15.00;99.90;;;;;;5073408;28;20421;-69
2023/03/18 09:21:50;;;;;;;1999.90;999.90;;;15.00;99.90;;;;;;5073127;28;20950;-69
2023/03/18 09:24:16;;;;;;;1999.90;999.90;;;15.00;99.90;;;;;;5072941;28;20398;-68
2023/03/18 09:26:42;;;;;;;1999.90;999.90;;;15.00;99.90;;;;;;5073030;28;20200;-69
2023/03/18 09:29:08;;;;;;;1999.90;999.90;;;15.10;99.90;;;;;;5072954;28;20906;-68
2023/03/18 09:31:33;;;;;;;1999.90;999.90;;;15.20;99.90;;;;;;5072912;28;20402;-68
2023/03/18 09:33:59;;;;;;;1999.90;999.90;;;15.30;99.90;;;;;;5072768;28;20185;-69
2023/03/18 09:36:26;;;;;;;1999.90;999.90;;;15.30;99.90;;;;;;5072846;28;20196;-68
2023/03/18 09:38:51;;;;;;;1999.90;999.90;;;15.40;99.90;;;;;;5072834;28;20409;-68
2023/03/18 09:41:38;;;;;;;1999.90;999.90;;;15.50;99.90;;;;;;5072551;28;20462;-66
2023/03/18 09:44:24;;;;;;;1999.90;999.90;;;15.50;99.90;;;;;;5072459;28;20168;-68
2023/03/18 09:46:56;;;;;;;1999.90;999.90;;;15.50;99.90;;;;;;5071380;28;20440;-69
2023/03/18 09:50:19;;;;;;;1999.90;999.90;;;15.70;99.90;;;;;;5072642;28;20482;-68
2023/03/18 09:52:53;;;;;;;1999.90;999.90;;;15.80;99.90;;;;;;5030116;28;20421;-68
2023/03/18 09:55:38;;;;;;;1999.90;999.90;;;15.70;99.90;;;;;;5072542;28;20777;-68
2023/03/18 09:58:19;;;;;;;1999.90;999.90;;;15.70;99.90;;;;;;5072389;28;20408;-68
2023/03/18 10:00:45;;;;;;;1999.90;999.90;;;15.70;99.90;;;;;;5072313;28;20408;-69
2023/03/18 10:03:26;;;;;;;1999.90;999.90;;;15.70;99.90;;;;;;5072328;28;20466;-69
2023/03/18 10:06:01;;;;;;;1999.90;999.90;;;15.80;99.90;;;;;;5072253;28;20428;-68
2023/03/18 10:08:42;;;;;;;1999.90;999.90;;;16.00;99.90;;;;;;5072331;28;20495;-67
2023/03/18 10:11:35;;;;;;;1999.90;999.90;;;16.10;99.90;;;;;;5072218;28;20412;-68
2023/03/18 10:14:26;;;;;;;1999.90;999.90;;;16.30;99.90;;;;;;5066276;28;20835;-68
2023/03/18 10:17:00;;;;;;;1999.90;999.90;;;16.60;99.90;;;;;;5072139;28;20862;-68
2023/03/18 10:19:27;;;;;;;1999.90;999.90;;;16.80;99.90;;;;;;5072187;28;20679;-68
2023/03/18 10:22:48;;;;;;;1999.90;999.90;;;17.00;99.90;;;;;;5071980;28;20513;-68
2023/03/18 10:25:35;;;;;;;1999.90;999.90;;;17.10;99.90;;;;;;5072803;28;20915;-68
2023/03/18 10:28:19;;;;;;;1999.90;999.90;;;17.20;99.90;;;;;;5071945;28;20402;-68
2023/03/18 10:31:07;;;;;;;1999.90;999.90;;;17.30;99.90;;;;;;5072021;28;20910;-68
2023/03/18 10:34:03;;;;;;;1999.90;999.90;;;17.20;99.90;;;;;;5071855;28;20929;-68
2023/03/18 10:36:49;;;;;;;1999.90;999.90;;;17.30;99.90;;;;;;5071790;28;20530;-68
2023/03/18 10:39:17;;;;;;;1999.90;999.90;;;17.50;99.90;;;;;;5072030;28;20493;-68
2023/03/18 10:41:48;;;;;;;1999.90;999.90;;;17.60;99.90;;;;;;5071632;28;20539;-68
2023/03/18 10:44:26;;;;;;;1999.90;999.90;;;17.70;99.90;;;;;;5071801;28;20412;-68
2023/03/18 10:46:59;;;;;;;1999.90;999.90;;;17.70;99.90;;;;;;5071971;28;20764;-68
2023/03/18 10:49:31;;;;;;;1999.90;999.90;;;18.00;99.90;;;;;;5071859;28;20489;-67
2023/03/18 10:52:17;;;;;;;1999.90;999.90;;;18.20;99.90;;;;;;5071660;28;20415;-68
2023/03/18 10:54:49;;;;;;;1999.90;999.90;;;18.00;99.90;;;;;;5071695;28;20440;-68
2023/03/18 10:57:15;;;;;;;1999.90;999.90;;;17.80;99.90;;;;;;5072467;28;20503;-67
2023/03/18 10:59:45;;;;;;;1999.90;999.90;;;17.40;99.90;;;;;;5076009;28;20410;-67
2023/03/18 11:02:14;;;;;;;1999.90;999.90;;;17.40;99.90;;;;;;5075679;28;20456;-67
2023/03/18 11:04:47;;;;;;;1999.90;999.90;;;17.40;99.90;;;;;;5075801;28;20466;-68
2023/03/18 11:07:18;;;;;;;1999.90;999.90;;;17.40;99.90;;;;;;5075707;28;20494;-68
2023/03/18 11:09:44;;;;;;;1999.90;999.90;;;17.50;99.90;;;;;;5075972;28;20500;-68
2023/03/18 11:12:13;;;;;;;1999.90;999.90;;;17.50;99.90;;;;;;5075436;28;20503;-69
2023/03/18 11:14:41;;;;;;;1999.90;999.90;;;17.60;99.90;;;;;;5075518;28;20506;-69
2023/03/18 11:17:22;;;;;;;1999.90;999.90;;;17.70;99.90;;;;;;5075531;28;20530;-68
2023/03/18 11:20:09;;;;;;;1999.90;999.90;;;17.90;99.90;;;;;;5075333;28;20421;-68
2023/03/18 11:22:36;;;;;;;1999.90;999.90;;;18.10;99.90;;;;;;5075675;28;20454;-68
2023/03/18 11:25:10;;;;;;;1999.90;999.90;;;18.30;99.90;;;;;;5075394;28;20834;-67
2023/03/18 11:27:45;;;;;;;1999.90;999.90;;;18.50;99.90;;;;;;5071944;28;20430;-67
2023/03/18 11:30:23;;;;;;;1999.90;999.90;;;18.60;99.90;;;;;;5051361;28;20419;-66
2023/03/18 11:32:57;;;;;;;1999.90;999.90;;;18.80;99.90;;;;;;5050298;28;20828;-67
2023/03/18 11:35:31;;;;;;;1999.90;999.90;;;19.20;99.90;;;;;;5051004;28;20449;-67
2023/03/18 11:38:03;;;;;;;1999.90;999.90;;;19.50;99.90;;;;;;5048024;28;20429;-66
2023/03/18 11:40:30;;;;;;;1999.90;999.90;;;20.00;99.90;;;;;;5050286;28;20482;-66
2023/03/18 11:42:59;;;;;;;1999.90;999.90;;;20.40;99.90;;;;;;5050653;28;20460;-68
2023/03/18 11:45:25;;;;;;;1999.90;999.90;;;20.60;99.90;;;;;;5051114;28;20492;-65
2023/03/18 11:47:51;;;;;;;1999.90;999.90;;;20.60;99.90;;;;;;5051041;28;20413;-66
2023/03/18 11:50:26;;;;;;;1999.90;999.90;;;20.70;99.90;;;;;;5050645;28;20169;-66
2023/03/18 11:53:00;;;;;;;1999.90;999.90;;;20.80;99.90;;;;;;5050618;28;20503;-66
2023/03/18 11:56:21;;;;;;;1999.90;999.90;;;21.00;99.90;;;;;;5050928;28;20498;-66
2023/03/18 11:59:00;;;;;;;1999.90;999.90;;;21.30;99.90;;;;;;5008275;28;20397;-66
2023/03/18 12:01:45;;;;;;;1999.90;999.90;;;21.50;99.90;;;;;;5045005;28;20432;-66
2023/03/18 12:04:29;;;;;;;1999.90;999.90;;;21.40;99.90;;;;;;5050442;28;20827;-66
2023/03/18 12:07:19;;;;;;;1999.90;999.90;;;21.50;99.90;;;;;;5050936;28;21019;-68
2023/03/18 12:09:52;;;;;;;1999.90;999.90;;;21.20;99.90;;;;;;5049124;28;20438;-68